Time;durP1;ratioP1;P1;durP2;ratioP2;P2;SDS_P1;SDS_P2;PMS_P1;PMS_P2;Temp;Humidity;BMP_temperature;BMP_pressure;BME280_temperature;BME280_humidity;BME280_pressure;Samples;Min_cycle;Max_cycle;Signal;HPM_P1;HPM_P2
2022/07/26 00:00:19;;;;;;;4.93;3.00;;;17.60;99.90;;;;;;5077306;28;20257;-77
2022/07/26 00:02:45;;;;;;;6.27;2.60;;;17.60;99.90;;;;;;5094813;28;20173;-75
2022/07/26 00:05:14;;;;;;;3.60;1.87;;;17.60;99.90;;;;;;5095329;28;20973;-77
2022/07/26 00:07:40;;;;;;;5.43;2.60;;;17.60;99.90;;;;;;5095313;28;20553;-76
2022/07/26 00:10:57;;;;;;;5.57;2.50;;;17.60;99.90;;;;;;5094296;28;20498;-73
2022/07/26 00:13:48;;;;;;;5.90;2.90;;;17.60;99.90;;;;;;5086059;28;20970;-68
2022/07/26 00:16:14;;;;;;;6.00;2.40;;;17.50;99.90;;;;;;5084250;28;20474;-77
2022/07/26 00:18:40;;;;;;;5.30;3.00;;;17.50;99.90;;;;;;5095216;28;20919;-68
2022/07/26 00:21:06;;;;;;;8.97;3.50;;;17.50;99.90;;;;;;5095100;28;20787;-69
2022/07/26 00:23:32;;;;;;;4.50;2.50;;;17.50;99.90;;;;;;5076080;28;20502;-77
2022/07/26 00:25:58;;;;;;;12.50;2.60;;;17.50;99.90;;;;;;5075870;28;20166;-69
2022/07/26 00:28:27;;;;;;;5.73;1.93;;;17.50;99.90;;;;;;5076851;28;20172;-68
2022/07/26 00:30:53;;;;;;;2.67;2.40;;;17.50;99.90;;;;;;5077091;28;20519;-76
2022/07/26 00:33:19;;;;;;;6.03;2.50;;;17.50;99.90;;;;;;5076418;28;20491;-68
2022/07/26 00:35:45;;;;;;;2.80;2.60;;;17.50;99.90;;;;;;5094736;28;20177;-75
2022/07/26 00:38:10;;;;;;;4.90;2.40;;;17.40;99.90;;;;;;5094727;28;20447;-68
2022/07/26 00:40:36;;;;;;;3.87;2.03;;;17.40;99.90;;;;;;5076594;28;20165;-76
2022/07/26 00:43:02;;;;;;;8.30;2.40;;;17.40;99.90;;;;;;5093554;28;20215;-70
2022/07/26 00:45:28;;;;;;;4.37;2.80;;;17.40;99.90;;;;;;5093875;28;20185;-75
2022/07/26 00:47:54;;;;;;;5.50;2.80;;;17.30;99.90;;;;;;5076501;28;20192;-69
2022/07/26 00:50:20;;;;;;;3.53;3.23;;;17.30;99.90;;;;;;5094599;28;20173;-68
2022/07/26 00:52:48;;;;;;;3.60;3.20;;;17.20;99.90;;;;;;5093863;28;20909;-70
2022/07/26 00:55:14;;;;;;;3.40;2.13;;;17.30;99.90;;;;;;5094439;28;20186;-69
2022/07/26 00:57:40;;;;;;;5.90;2.70;;;17.30;99.90;;;;;;5094262;28;20443;-75
2022/07/26 01:00:18;;;;;;;2.70;2.50;;;17.30;99.90;;;;;;5076119;28;20410;-68
2022/07/26 01:05:49;;;;;;;5.67;2.63;;;17.30;99.90;;;;;;5012087;28;20545;-68
2022/07/26 01:08:15;;;;;;;3.90;2.37;;;17.30;99.90;;;;;;5091488;28;20420;-68
2022/07/26 01:10:47;;;;;;;6.30;2.60;;;17.30;99.90;;;;;;5076349;28;20479;-74
2022/07/26 01:13:24;;;;;;;6.10;2.00;;;17.40;99.90;;;;;;5093441;28;20407;-68
2022/07/26 01:15:50;;;;;;;9.33;3.37;;;17.40;99.90;;;;;;5094006;28;20438;-76
2022/07/26 01:18:16;;;;;;;3.40;2.77;;;17.40;99.90;;;;;;5093859;28;20455;-68
2022/07/26 01:20:43;;;;;;;4.23;2.90;;;17.40;99.90;;;;;;5093976;28;20404;-76
2022/07/26 01:23:10;;;;;;;7.00;3.00;;;17.40;99.90;;;;;;5074435;28;20435;-76
2022/07/26 01:25:39;;;;;;;6.07;3.13;;;17.40;99.90;;;;;;5075942;28;20459;-69
2022/07/26 01:28:34;;;;;;;5.20;3.03;;;17.40;99.90;;;;;;5075451;28;20426;-74
2022/07/26 01:31:00;;;;;;;3.10;2.87;;;17.30;99.90;;;;;;5062619;28;20420;-69
2022/07/26 01:33:27;;;;;;;3.00;2.40;;;17.30;99.90;;;;;;5074561;28;20414;-73
2022/07/26 01:35:53;;;;;;;6.70;2.70;;;17.30;99.90;;;;;;5075448;28;20921;-76
2022/07/26 01:39:00;;;;;;;4.30;2.67;;;17.30;99.90;;;;;;5092760;28;20489;-75
2022/07/26 01:41:26;;;;;;;10.93;3.73;;;17.30;99.90;;;;;;5091191;28;20947;-74
2022/07/26 01:43:52;;;;;;;5.30;3.10;;;17.20;99.90;;;;;;5092668;28;20455;-68
2022/07/26 01:46:18;;;;;;;3.47;2.53;;;17.20;99.90;;;;;;5075409;28;20176;-76
2022/07/26 01:48:44;;;;;;;4.90;3.30;;;17.10;99.90;;;;;;5093565;28;20415;-70
2022/07/26 01:51:10;;;;;;;3.83;3.13;;;17.10;99.90;;;;;;5093535;28;20411;-68
2022/07/26 01:53:56;;;;;;;7.30;3.30;;;17.10;99.90;;;;;;5092412;28;20400;-76
2022/07/26 01:56:22;;;;;;;3.73;3.10;;;17.10;99.90;;;;;;5091974;28;20455;-75
2022/07/26 01:58:48;;;;;;;6.83;3.00;;;17.10;99.90;;;;;;5093181;28;20402;-68
2022/07/26 02:01:15;;;;;;;3.40;3.10;;;17.10;99.90;;;;;;5093447;28;20400;-68
2022/07/26 02:04:01;;;;;;;5.67;3.00;;;17.10;99.90;;;;;;5074379;28;20427;-76
2022/07/26 02:06:26;;;;;;;4.27;2.80;;;17.10;99.90;;;;;;5093197;28;20499;-67
2022/07/26 02:08:55;;;;;;;4.63;2.57;;;17.10;99.90;;;;;;5093295;28;20492;-76
2022/07/26 02:11:21;;;;;;;12.63;4.00;;;17.00;99.90;;;;;;5075202;28;20173;-69
2022/07/26 02:13:47;;;;;;;6.07;3.07;;;17.10;99.90;;;;;;5073806;28;20420;-68
2022/07/26 02:16:33;;;;;;;;;;;;;;;;;;;;;
2022/07/26 02:19:52;;;;;;;5.50;3.60;;;17.20;99.90;;;;;;5093082;28;20238;-76
2022/07/26 02:22:19;;;;;;;4.97;3.13;;;17.20;99.90;;;;;;5086569;28;20415;-68
2022/07/26 02:24:48;;;;;;;3.27;3.03;;;17.20;99.90;;;;;;5074852;28;20415;-69
2022/07/26 02:27:17;;;;;;;6.03;2.90;;;17.30;99.90;;;;;;5075018;28;20411;-69
2022/07/26 02:29:43;;;;;;;9.40;3.60;;;17.20;99.90;;;;;;5093005;28;20964;-68
2022/07/26 02:32:12;;;;;;;4.50;3.30;;;17.30;99.90;;;;;;5074425;28;20495;-73
2022/07/26 02:34:41;;;;;;;4.30;3.53;;;17.30;99.90;;;;;;5074446;28;20427;-76
2022/07/26 02:37:07;;;;;;;3.20;2.90;;;17.30;99.90;;;;;;5092595;28;20535;-76
2022/07/26 02:39:33;;;;;;;5.10;3.00;;;17.30;99.90;;;;;;5075033;28;20494;-77
2022/07/26 02:42:02;;;;;;;5.20;3.17;;;17.30;99.90;;;;;;5092786;28;20474;-69
2022/07/26 02:44:29;;;;;;;3.27;2.97;;;17.30;99.90;;;;;;5092040;28;20185;-68
2022/07/26 02:46:55;;;;;;;3.50;2.90;;;17.40;99.90;;;;;;5092893;28;20498;-76
2022/07/26 02:49:24;;;;;;;6.50;3.03;;;17.40;99.90;;;;;;5092958;28;20400;-73
2022/07/26 02:51:51;;;;;;;3.30;3.03;;;17.40;99.90;;;;;;5092813;28;20454;-76
2022/07/26 02:54:20;;;;;;;3.03;2.73;;;17.40;99.90;;;;;;5090858;28;20423;-69
2022/07/26 02:56:48;;;;;;;3.40;2.70;;;17.40;99.90;;;;;;5092557;28;20451;-69
2022/07/26 02:59:17;;;;;;;8.60;3.40;;;17.40;99.90;;;;;;5092766;28;20442;-68
2022/07/26 03:01:43;;;;;;;6.27;3.10;;;17.30;99.90;;;;;;5074916;28;20430;-68
2022/07/26 03:04:09;;;;;;;6.33;3.20;;;17.30;99.90;;;;;;5091669;28;20423;-76
2022/07/26 03:06:35;;;;;;;9.70;3.40;;;17.30;99.90;;;;;;5074541;28;20202;-76
2022/07/26 03:09:01;;;;;;;4.07;2.87;;;17.40;99.90;;;;;;5092637;28;20530;-68
2022/07/26 03:11:27;;;;;;;2.53;2.33;;;17.40;99.90;;;;;;5074464;28;20591;-68
2022/07/26 03:13:53;;;;;;;2.97;2.77;;;17.40;99.90;;;;;;5090955;28;20510;-76
2022/07/26 03:16:19;;;;;;;4.30;2.57;;;17.50;99.90;;;;;;5092477;28;20524;-76
2022/07/26 03:18:45;;;;;;;7.27;2.70;;;17.50;99.90;;;;;;5092417;28;20642;-74
2022/07/26 03:21:11;;;;;;;3.90;2.93;;;17.40;99.90;;;;;;5092538;28;20248;-68
2022/07/26 03:23:37;;;;;;;3.70;2.60;;;17.40;99.90;;;;;;5091547;28;20553;-69
2022/07/26 03:26:03;;;;;;;6.67;2.93;;;17.40;99.90;;;;;;5093452;28;20402;-72
2022/07/26 03:28:33;;;;;;;7.50;3.73;;;17.40;99.90;;;;;;5096232;28;20396;-75
2022/07/26 03:30:59;;;;;;;2.90;2.60;;;17.30;99.90;;;;;;5095932;28;20448;-75
2022/07/26 03:33:25;;;;;;;5.30;2.70;;;17.30;99.90;;;;;;5076546;28;20416;-70
2022/07/26 03:35:51;;;;;;;4.80;2.90;;;17.30;99.90;;;;;;5096165;28;20407;-76
2022/07/26 03:38:17;;;;;;;8.23;3.70;;;17.30;99.90;;;;;;5095945;28;20474;-76
2022/07/26 03:40:43;;;;;;;4.97;2.93;;;17.30;99.90;;;;;;5077790;28;20162;-75
2022/07/26 03:43:09;;;;;;;4.83;3.17;;;17.20;99.90;;;;;;5076852;28;20664;-76
2022/07/26 03:45:35;;;;;;;12.30;3.50;;;17.20;99.90;;;;;;5095805;28;20185;-76
2022/07/26 03:48:04;;;;;;;3.87;2.80;;;17.20;99.90;;;;;;5077384;28;20717;-69
2022/07/26 03:50:30;;;;;;;9.13;2.80;;;17.20;99.90;;;;;;5095267;28;20892;-67
2022/07/26 03:52:56;;;;;;;4.80;2.77;;;17.20;99.90;;;;;;5076891;28;20473;-68
2022/07/26 03:58:06;;;;;;;3.93;3.13;;;17.10;99.90;;;;;;5095625;28;20204;-75
2022/07/26 04:04:16;;;;;;;15.63;3.40;;;17.10;99.90;;;;;;5071144;28;20730;-68
2022/07/26 04:06:43;;;;;;;4.70;2.77;;;17.00;99.90;;;;;;5076690;28;20412;-69
2022/07/26 04:09:09;;;;;;;4.23;3.10;;;17.00;99.90;;;;;;5095053;28;20875;-75
2022/07/26 04:11:35;;;;;;;5.00;3.13;;;17.00;99.90;;;;;;5077161;28;20520;-68
2022/07/26 04:14:01;;;;;;;7.93;3.80;;;17.00;99.90;;;;;;5094279;28;20553;-76
2022/07/26 04:16:27;;;;;;;7.47;3.43;;;17.10;99.90;;;;;;5095225;28;20458;-75
2022/07/26 04:18:54;;;;;;;8.87;3.70;;;17.10;99.90;;;;;;5077161;28;20431;-75
2022/07/26 04:21:20;;;;;;;3.87;3.40;;;17.10;99.90;;;;;;5095144;28;20255;-75
2022/07/26 04:23:46;;;;;;;7.03;2.67;;;17.10;99.90;;;;;;5075703;28;21076;-74
2022/07/26 04:26:13;;;;;;;8.30;3.70;;;17.10;99.90;;;;;;5094515;28;20475;-76
2022/07/26 04:28:42;;;;;;;4.33;2.73;;;17.10;99.90;;;;;;5095204;28;20407;-67
2022/07/26 04:31:08;;;;;;;6.47;5.10;;;17.10;99.90;;;;;;5095087;28;20407;-75
2022/07/26 04:33:34;;;;;;;5.07;3.10;;;17.10;99.90;;;;;;5075530;28;20422;-68
2022/07/26 04:36:02;;;;;;;5.83;3.33;;;17.10;99.90;;;;;;5094835;28;20400;-76
2022/07/26 04:38:27;;;;;;;4.93;3.70;;;17.20;99.90;;;;;;5076591;28;20485;-67
2022/07/26 04:40:54;;;;;;;3.70;2.70;;;17.20;99.90;;;;;;5094713;28;20876;-75
2022/07/26 04:43:20;;;;;;;3.07;2.77;;;17.20;99.90;;;;;;5074916;28;20251;-73
2022/07/26 04:45:47;;;;;;;3.23;2.97;;;17.20;99.90;;;;;;5076743;28;20490;-67
2022/07/26 04:48:14;;;;;;;3.70;2.93;;;17.20;99.90;;;;;;5076539;28;20173;-76
2022/07/26 04:50:44;;;;;;;6.47;2.97;;;17.30;99.90;;;;;;5094613;28;20414;-68
2022/07/26 04:53:16;;;;;;;5.27;2.63;;;17.30;99.90;;;;;;5093662;28;20395;-68
2022/07/26 04:55:42;;;;;;;7.20;2.83;;;17.50;99.90;;;;;;5094311;28;20458;-67
2022/07/26 04:58:09;;;;;;;4.30;2.93;;;17.50;99.90;;;;;;5076199;28;20459;-76
2022/07/26 05:00:36;;;;;;;5.10;2.80;;;17.60;99.90;;;;;;5093608;28;20942;-76
2022/07/26 05:03:05;;;;;;;3.63;3.13;;;17.60;99.90;;;;;;5093392;28;20753;-75
2022/07/26 05:05:31;;;;;;;5.00;2.90;;;17.60;99.90;;;;;;5076074;28;20439;-69
2022/07/26 05:08:01;;;;;;;5.80;2.90;;;17.60;99.90;;;;;;5094342;28;20768;-67
2022/07/26 05:10:30;;;;;;;5.20;2.87;;;17.60;99.90;;;;;;5094207;28;20806;-75
2022/07/26 05:13:16;;;;;;;2.70;2.50;;;17.60;99.90;;;;;;5093213;28;20870;-67
2022/07/26 05:15:42;;;;;;;11.87;3.03;;;17.60;99.90;;;;;;5093183;28;20844;-75
2022/07/26 05:18:09;;;;;;;5.23;2.53;;;17.70;99.90;;;;;;5093887;28;20600;-74
2022/07/26 05:20:35;;;;;;;4.73;3.03;;;17.60;99.90;;;;;;5093141;28;20200;-68
2022/07/26 05:23:02;;;;;;;3.77;2.80;;;17.70;99.90;;;;;;5093104;28;20404;-75
2022/07/26 05:25:28;;;;;;;8.90;2.90;;;17.80;99.90;;;;;;5075904;28;20453;-75
2022/07/26 05:27:54;;;;;;;4.27;2.53;;;17.70;99.90;;;;;;5093847;28;20415;-68
2022/07/26 05:30:20;;;;;;;4.90;3.50;;;17.80;99.90;;;;;;5093806;28;20407;-76
2022/07/26 05:32:46;;;;;;;5.03;2.47;;;17.70;99.90;;;;;;5092976;28;20410;-77
2022/07/26 05:35:12;;;;;;;3.43;1.80;;;17.80;99.90;;;;;;5075884;28;20205;-68
2022/07/26 05:37:38;;;;;;;3.17;1.87;;;17.80;99.90;;;;;;5074766;28;20201;-75
2022/07/26 05:40:05;;;;;;;5.63;2.57;;;17.80;99.90;;;;;;5093614;28;20400;-69
2022/07/26 05:42:31;;;;;;;5.60;2.30;;;17.80;99.90;;;;;;5092810;28;20404;-68
2022/07/26 05:45:00;;;;;;;2.37;2.07;;;17.80;99.90;;;;;;5093545;28;20443;-73
2022/07/26 05:47:29;;;;;;;2.57;1.77;;;17.70;99.90;;;;;;5093602;28;20498;-71
2022/07/26 05:50:46;;;;;;;;;;;;;;;;;;;;;
2022/07/26 05:53:12;;;;;;;2.03;1.07;;;17.70;99.90;;;;;;5073671;28;20411;-75
2022/07/26 05:55:41;;;;;;;1.20;1.03;;;17.60;99.90;;;;;;5075383;28;20530;-74
2022/07/26 05:58:07;;;;;;;1.93;1.00;;;17.50;99.90;;;;;;5093195;28;20197;-75
2022/07/26 06:00:33;;;;;;;1.40;1.10;;;17.50;99.90;;;;;;5093374;28;20453;-69
2022/07/26 06:03:20;;;;;;;1.40;1.00;;;17.60;99.90;;;;;;5092382;28;20399;-69
2022/07/26 06:05:45;;;;;;;4.57;1.00;;;17.60;99.90;;;;;;5092953;28;20427;-75
2022/07/26 06:08:11;;;;;;;2.80;1.10;;;17.70;99.90;;;;;;5093153;28;20422;-69
2022/07/26 06:10:37;;;;;;;3.47;1.23;;;17.70;99.90;;;;;;5092715;28;20166;-69
2022/07/26 06:13:03;;;;;;;3.10;1.27;;;17.60;99.90;;;;;;5091987;28;20403;-75
2022/07/26 06:15:29;;;;;;;1.63;1.23;;;17.60;99.90;;;;;;5093094;28;20544;-75
2022/07/26 06:18:05;;;;;;;1.00;0.70;;;17.70;99.90;;;;;;5093163;28;20458;-69
2022/07/26 06:20:31;;;;;;;2.07;1.10;;;17.80;99.90;;;;;;5093217;28;20763;-68
2022/07/26 06:22:58;;;;;;;1.10;0.80;;;17.80;99.90;;;;;;5092256;28;20404;-76
2022/07/26 06:25:25;;;;;;;1.50;0.97;;;17.90;99.90;;;;;;5093001;28;20427;-75
2022/07/26 06:27:54;;;;;;;1.10;0.90;;;17.90;99.90;;;;;;5093197;28;20415;-69
2022/07/26 06:30:20;;;;;;;1.50;1.00;;;17.90;99.90;;;;;;5092341;28;20465;-75
2022/07/26 06:32:51;;;;;;;1.20;0.83;;;17.90;99.30;;;;;;5091781;28;20423;-69
2022/07/26 06:35:17;;;;;;;1.67;0.90;;;17.90;99.90;;;;;;5093051;28;20419;-76
2022/07/26 06:37:43;;;;;;;1.60;0.90;;;18.00;99.90;;;;;;5092950;28;20450;-69
2022/07/26 06:40:12;;;;;;;3.13;0.90;;;17.90;94.90;;;;;;5092924;28;20396;-69
2022/07/26 06:42:38;;;;;;;2.57;1.03;;;18.00;94.70;;;;;;5092097;28;20169;-68
2022/07/26 06:45:04;;;;;;;1.83;1.00;;;17.90;87.50;;;;;;5092755;28;20461;-76
2022/07/26 06:47:30;;;;;;;1.23;0.90;;;17.80;81.40;;;;;;5092768;28;20907;-70
2022/07/26 06:49:57;;;;;;;3.20;0.90;;;17.70;55.20;;;;;;5092155;28;20395;-67
2022/07/26 06:52:23;;;;;;;1.30;1.10;;;17.80;36.30;;;;;;5091878;28;20408;-72
2022/07/26 06:54:49;;;;;;;2.23;1.40;;;17.90;52.00;;;;;;5092661;28;20434;-69
2022/07/26 07:00:40;;;;;;;3.07;0.90;;;18.10;68.90;;;;;;5092793;28;20812;-78
2022/07/26 07:03:09;;;;;;;2.33;0.93;;;18.20;58.60;;;;;;5095871;28;20410;-77
2022/07/26 07:05:35;;;;;;;6.90;1.20;;;18.10;52.40;;;;;;5096152;28;20498;-72
2022/07/26 07:08:05;;;;;;;2.20;0.70;;;18.00;55.00;;;;;;5096270;28;20439;-72
2022/07/26 07:10:31;;;;;;;1.20;1.10;;;17.90;37.90;;;;;;5096784;28;20483;-78
2022/07/26 07:12:57;;;;;;;4.27;1.00;;;18.00;66.30;;;;;;5095570;28;20799;-78
2022/07/26 07:15:23;;;;;;;1.20;0.70;;;18.00;44.50;;;;;;5096481;28;20419;-72
2022/07/26 07:17:52;;;;;;;1.67;0.67;;;18.00;51.10;;;;;;5096234;28;20987;-78
2022/07/26 07:20:18;;;;;;;1.20;0.80;;;17.90;54.70;;;;;;5096039;28;20169;-72
2022/07/26 07:22:44;;;;;;;1.50;0.90;;;17.70;70.20;;;;;;5095110;28;20403;-77
2022/07/26 07:25:10;;;;;;;1.00;0.80;;;17.70;60.10;;;;;;5095891;28;20427;-72
2022/07/26 07:27:46;;;;;;;2.87;1.30;;;17.50;39.20;;;;;;5095918;28;20502;-72
2022/07/26 07:30:13;;;;;;;2.03;1.40;;;17.40;55.30;;;;;;5096271;28;20407;-77
2022/07/26 07:32:38;;;;;;;1.20;0.80;;;17.40;63.80;;;;;;5095306;28;20783;-78
2022/07/26 07:35:05;;;;;;;1.30;0.87;;;17.30;69.00;;;;;;5077808;28;20489;-72
2022/07/26 07:37:34;;;;;;;1.10;0.97;;;17.30;47.00;;;;;;5095974;28;20197;-77
2022/07/26 07:40:02;;;;;;;4.40;1.30;;;17.30;56.30;;;;;;5096075;28;20420;-77
2022/07/26 07:42:28;;;;;;;1.30;0.70;;;17.50;58.30;;;;;;5095262;28;20431;-77
2022/07/26 07:44:54;;;;;;;1.97;0.90;;;17.60;52.90;;;;;;5095281;28;21065;-77
2022/07/26 07:47:21;;;;;;;3.17;0.90;;;17.60;39.70;;;;;;5095726;28;20418;-72
2022/07/26 07:49:47;;;;;;;1.67;1.03;;;17.60;20.50;;;;;;5095841;28;20165;-77
2022/07/26 07:52:13;;;;;;;4.67;0.83;;;17.70;32.90;;;;;;5094849;28;20741;-72
2022/07/26 07:54:38;;;;;;;2.13;0.83;;;17.80;16.90;;;;;;5095673;28;20422;-77
2022/07/26 07:57:07;;;;;;;1.83;0.90;;;18.10;45.90;;;;;;5095589;28;20459;-77
2022/07/26 07:59:33;;;;;;;3.03;1.00;;;18.10;1.00;;;;;;5095681;28;20165;-71
2022/07/26 08:01:59;;;;;;;1.20;0.80;;;18.10;2.00;;;;;;5076831;28;20407;-73
2022/07/26 08:04:25;;;;;;;2.40;0.80;;;18.10;1.20;;;;;;5094784;28;20220;-72
2022/07/26 08:06:51;;;;;;;1.30;0.90;;;18.20;5.50;;;;;;5095454;28;20462;-72
2022/07/26 08:09:18;;;;;;;3.43;1.00;;;18.00;1.00;;;;;;5095335;28;20408;-77
2022/07/26 08:11:44;;;;;;;1.70;0.90;;;17.80;1.00;;;;;;5095026;28;20166;-71
2022/07/26 08:14:10;;;;;;;1.83;0.90;;;17.80;1.00;;;;;;5094393;28;20543;-70
2022/07/26 08:16:36;;;;;;;3.03;1.00;;;17.70;1.00;;;;;;5095267;28;20439;-73
2022/07/26 08:19:02;;;;;;;1.40;1.03;;;17.70;5.10;;;;;;5094922;28;20437;-77
2022/07/26 08:21:28;;;;;;;1.63;0.97;;;17.60;1.00;;;;;;5094519;28;20158;-77
2022/07/26 08:23:54;;;;;;;1.30;1.00;;;17.60;1.00;;;;;;5094196;28;20451;-73
2022/07/26 08:26:20;;;;;;;2.60;0.90;;;17.50;1.00;;;;;;5095066;28;20392;-71
2022/07/26 08:28:46;;;;;;;4.40;1.50;;;17.60;1.00;;;;;;5095023;28;20401;-77
2022/07/26 08:31:12;;;;;;;1.70;0.63;;;17.80;1.00;;;;;;5076867;28;20518;-75
2022/07/26 08:33:38;;;;;;;1.43;0.83;;;18.10;1.00;;;;;;5093987;28;20161;-77
2022/07/26 08:36:04;;;;;;;1.00;0.77;;;18.30;1.00;;;;;;5077306;28;20404;-77
2022/07/26 08:38:30;;;;;;;2.23;0.90;;;18.30;1.00;;;;;;5094298;28;20455;-77
2022/07/26 08:40:59;;;;;;;5.03;1.33;;;18.40;1.00;;;;;;5094750;28;20406;-72
2022/07/26 08:43:28;;;;;;;1.50;0.90;;;18.40;1.00;;;;;;5093747;28;20180;-77
2022/07/26 08:46:02;;;;;;;3.00;0.90;;;18.30;1.00;;;;;;5094668;28;20396;-76
2022/07/26 08:48:29;;;;;;;4.40;0.83;;;18.30;1.00;;;;;;5094868;28;20394;-70
2022/07/26 08:50:55;;;;;;;0.87;0.60;;;18.50;1.00;;;;;;5094695;28;20903;-71
2022/07/26 08:53:25;;;;;;;4.93;0.90;;;18.60;1.00;;;;;;5093536;28;20395;-77
2022/07/26 08:55:56;;;;;;;3.10;1.10;;;18.60;1.00;;;;;;5076380;28;20419;-72
2022/07/26 08:58:22;;;;;;;7.13;1.10;;;18.70;1.00;;;;;;5093898;28;20458;-77
2022/07/26 09:01:03;;;;;;;1.40;1.00;;;18.80;1.00;;;;;;5094384;28;20395;-71
2022/07/26 09:03:30;;;;;;;3.83;0.90;;;18.80;1.00;;;;;;5093513;28;20392;-77
2022/07/26 09:05:59;;;;;;;2.67;1.00;;;18.70;1.00;;;;;;5094336;28;20768;-75
2022/07/26 09:08:28;;;;;;;1.10;0.90;;;18.70;1.00;;;;;;5094608;28;20412;-77
2022/07/26 09:11:03;;;;;;;2.10;0.80;;;18.90;1.00;;;;;;5094200;28;20949;-77
2022/07/26 09:13:59;;;;;;;2.10;1.20;;;19.20;1.00;;;;;;5093449;28;20810;-72
2022/07/26 09:16:25;;;;;;;9.33;1.20;;;19.40;1.00;;;;;;5094121;28;20438;-77
2022/07/26 09:18:51;;;;;;;3.23;1.07;;;19.50;1.00;;;;;;5093448;28;20427;-68
2022/07/26 09:21:35;;;;;;;2.90;1.10;;;19.70;1.00;;;;;;5093868;28;20594;-69
2022/07/26 09:24:03;;;;;;;2.40;0.70;;;20.10;1.00;;;;;;5092290;28;20412;-70
2022/07/26 09:26:29;;;;;;;2.03;1.00;;;20.10;99.90;;;;;;5075909;28;20411;-69
2022/07/26 09:29:08;;;;;;;1.73;0.87;;;19.90;1.00;;;;;;5093978;28;20426;-67
2022/07/26 09:31:35;;;;;;;2.23;1.10;;;19.80;1.00;;;;;;5093783;28;20404;-76
2022/07/26 09:34:02;;;;;;;2.20;1.20;;;19.30;1.00;;;;;;5092967;28;20423;-68
2022/07/26 09:36:30;;;;;;;3.63;0.97;;;19.30;1.00;;;;;;5093218;28;20816;-76
2022/07/26 09:39:00;;;;;;;2.33;0.97;;;19.40;1.00;;;;;;5093714;28;20498;-77
2022/07/26 09:41:29;;;;;;;2.70;0.70;;;19.70;1.00;;;;;;5093747;28;20407;-68
2022/07/26 09:43:59;;;;;;;5.27;1.13;;;19.70;1.00;;;;;;5074929;28;20435;-76
2022/07/26 09:46:29;;;;;;;3.13;1.10;;;19.90;1.00;;;;;;5093711;28;20737;-77
2022/07/26 09:48:56;;;;;;;3.30;0.83;;;19.90;1.00;;;;;;5075457;28;20789;-77
2022/07/26 09:51:37;;;;;;;4.50;1.07;;;20.00;99.90;;;;;;5093506;28;20407;-69
2022/07/26 09:54:03;;;;;;;4.77;1.60;;;19.90;1.00;;;;;;5092241;28;20427;-68
2022/07/26 09:56:47;;;;;;;6.10;1.30;;;19.80;1.00;;;;;;5093573;28;20407;-67
2022/07/26 09:59:15;;;;;;;4.50;1.30;;;19.70;1.00;;;;;;5093472;28;20403;-76
2022/07/26 10:01:42;;;;;;;3.13;1.33;;;19.40;99.90;;;;;;5093578;28;20482;-76
2022/07/26 10:04:08;;;;;;;2.70;1.43;;;19.40;1.00;;;;;;5092571;28;20431;-76
2022/07/26 10:06:33;;;;;;;2.97;1.17;;;19.90;1.00;;;;;;5093448;28;20435;-76
2022/07/26 10:09:00;;;;;;;4.90;1.70;;;20.50;1.00;;;;;;5093346;28;20450;-74
2022/07/26 10:11:31;;;;;;;2.70;1.93;;;21.10;1.00;;;;;;5092577;28;20199;-67
2022/07/26 10:13:57;;;;;;;1.60;0.90;;;21.40;1.00;;;;;;5092526;28;20411;-68
2022/07/26 10:16:31;;;;;;;5.53;1.97;;;21.90;1.00;;;;;;5093175;28;20556;-76
2022/07/26 10:18:58;;;;;;;2.07;1.00;;;22.40;1.00;;;;;;5093139;28;20434;-68
2022/07/26 10:21:30;;;;;;;3.03;1.10;;;22.70;1.00;;;;;;5093201;28;20903;-75
2022/07/26 10:24:00;;;;;;;4.00;1.30;;;23.30;1.00;;;;;;5083388;28;20910;-75
2022/07/26 10:26:32;;;;;;;3.97;1.00;;;23.70;1.00;;;;;;5072704;28;20495;-75
2022/07/26 10:29:16;;;;;;;3.47;1.00;;;23.70;1.00;;;;;;5082305;28;20427;-77
2022/07/26 10:31:45;;;;;;;3.60;1.60;;;23.10;1.00;;;;;;5090947;28;20399;-74
2022/07/26 10:34:31;;;;;;;3.10;0.93;;;22.60;1.00;;;;;;5071907;28;21043;-72
2022/07/26 10:37:01;;;;;;;3.70;0.90;;;22.00;1.00;;;;;;5080009;28;20451;-77
2022/07/26 10:39:27;;;;;;;6.50;2.23;;;22.20;1.00;;;;;;5088280;28;20428;-68
2022/07/26 10:42:11;;;;;;;1.60;1.10;;;22.50;1.00;;;;;;5081185;28;20488;-75
2022/07/26 10:44:40;;;;;;;2.63;1.13;;;23.00;1.00;;;;;;5096940;28;20185;-77
2022/07/26 10:47:06;;;;;;;5.10;1.00;;;23.20;1.00;;;;;;5095976;28;20422;-76
2022/07/26 10:49:58;;;;;;;1.70;1.10;;;23.40;1.00;;;;;;5096910;28;20407;-69
2022/07/26 10:52:27;;;;;;;1.37;0.97;;;23.90;1.00;;;;;;5083833;28;20170;-77
2022/07/26 10:54:56;;;;;;;2.93;1.23;;;23.70;1.00;;;;;;5076580;28;20497;-70
2022/07/26 10:57:23;;;;;;;3.03;1.23;;;23.80;99.90;;;;;;5093843;28;20504;-78
2022/07/26 10:59:49;;;;;;;2.90;1.00;;;23.80;1.00;;;;;;5096931;28;20418;-70
2022/07/26 11:02:19;;;;;;;1.77;0.93;;;23.20;1.00;;;;;;5061587;28;20416;-70
2022/07/26 11:04:45;;;;;;;3.83;1.00;;;22.20;1.00;;;;;;5075842;28;20812;-72
2022/07/26 11:07:11;;;;;;;1.90;1.20;;;21.60;99.90;;;;;;5075764;28;20428;-76
2022/07/26 11:09:38;;;;;;;1.77;1.50;;;21.60;1.00;;;;;;5076254;28;20405;-70
2022/07/26 11:12:20;;;;;;;3.90;3.33;;;22.10;1.00;;;;;;5076032;28;20888;-69
2022/07/26 11:14:46;;;;;;;2.10;1.13;;;22.60;1.00;;;;;;5076700;28;20431;-68
2022/07/26 11:17:30;;;;;;;4.30;1.43;;;22.20;1.00;;;;;;5096440;28;20447;-72
2022/07/26 11:19:56;;;;;;;4.03;1.27;;;22.00;1.00;;;;;;5094648;28;20404;-77
2022/07/26 11:22:31;;;;;;;3.80;1.53;;;21.90;1.00;;;;;;5095502;28;20486;-72
2022/07/26 11:24:57;;;;;;;3.60;1.20;;;22.70;1.00;;;;;;5094544;28;20476;-77
2022/07/26 11:27:22;;;;;;;4.27;0.93;;;23.30;1.00;;;;;;5075728;28;20440;-72
2022/07/26 11:29:48;;;;;;;3.50;1.40;;;23.80;99.90;;;;;;5076005;28;20415;-78
2022/07/26 11:32:19;;;;;;;2.60;1.13;;;24.00;99.90;;;;;;5093842;28;20677;-76
2022/07/26 11:34:45;;;;;;;1.57;1.10;;;24.20;1.00;;;;;;5075607;28;20569;-71
2022/07/26 11:37:11;;;;;;;2.30;1.30;;;24.00;1.00;;;;;;5094321;28;20799;-76
2022/07/26 11:39:37;;;;;;;3.63;1.10;;;24.40;1.00;;;;;;5095133;28;20502;-70
2022/07/26 11:42:05;;;;;;;2.57;0.90;;;25.00;99.90;;;;;;5095221;28;20411;-75
2022/07/26 11:44:32;;;;;;;2.23;0.93;;;25.90;99.90;;;;;;5084737;28;20269;-68
2022/07/26 11:47:11;;;;;;;5.73;1.13;;;26.10;99.90;;;;;;5074577;28;20483;-74
2022/07/26 11:49:37;;;;;;;3.93;1.00;;;24.90;99.90;;;;;;5075479;28;20446;-77
2022/07/26 11:52:03;;;;;;;2.43;1.03;;;24.00;99.90;;;;;;5092717;28;20431;-75
2022/07/26 11:54:50;;;;;;;1.43;0.77;;;24.00;1.00;;;;;;5095190;28;20204;-68
2022/07/26 11:57:17;;;;;;;7.83;1.30;;;24.90;1.00;;;;;;5094481;28;21010;-76
2022/07/26 11:59:45;;;;;;;3.47;0.93;;;26.10;99.90;;;;;;5095348;28;20476;-76
2022/07/26 12:02:12;;;;;;;1.47;1.20;;;26.70;99.90;;;;;;5092996;28;20895;-73
2022/07/26 12:04:39;;;;;;;4.23;1.93;;;27.60;1.00;;;;;;5070625;28;20479;-67
2022/07/26 12:07:13;;;;;;;5.03;1.07;;;28.00;99.90;;;;;;5075127;28;20457;-75
2022/07/26 12:10:00;;;;;;;3.33;0.77;;;28.20;99.90;;;;;;5093073;28;20423;-67
2022/07/26 12:12:30;;;;;;;3.10;1.27;;;27.90;99.90;;;;;;5083855;28;20420;-68
2022/07/26 12:15:04;;;;;;;3.67;1.07;;;28.10;99.90;;;;;;5075090;28;20841;-75
2022/07/26 12:17:30;;;;;;;5.27;1.27;;;27.80;99.90;;;;;;5084685;28;20534;-68
2022/07/26 12:20:09;;;;;;;1.30;0.77;;;27.30;99.90;;;;;;5094666;28;20439;-76
2022/07/26 12:22:34;;;;;;;2.07;0.87;;;27.50;99.90;;;;;;5074038;28;20185;-68
2022/07/26 12:25:00;;;;;;;2.70;1.00;;;27.90;99.90;;;;;;5057015;28;20804;-68
2022/07/26 12:27:29;;;;;;;2.40;0.87;;;28.00;99.90;;;;;;5094839;28;20256;-69
2022/07/26 12:30:13;;;;;;;1.50;0.90;;;27.20;99.90;;;;;;5095152;28;20403;-67
2022/07/26 12:32:43;;;;;;;3.83;1.27;;;25.90;99.90;;;;;;5074050;28;20435;-69
2022/07/26 12:35:15;;;;;;;5.00;1.50;;;25.90;99.90;;;;;;5085352;28;20465;-76
2022/07/26 12:37:46;;;;;;;3.10;1.10;;;26.60;99.90;;;;;;5092820;28;20490;-69
2022/07/26 12:40:14;;;;;;;4.33;0.93;;;26.20;99.90;;;;;;5083327;28;20422;-69
2022/07/26 12:43:00;;;;;;;3.77;1.30;;;25.40;99.90;;;;;;5094001;28;20407;-68
2022/07/26 12:45:32;;;;;;;6.77;1.50;;;25.10;99.90;;;;;;5093702;28;20443;-70
2022/07/26 12:48:01;;;;;;;4.60;0.83;;;24.50;99.90;;;;;;5071722;28;20417;-67
2022/07/26 12:50:28;;;;;;;5.93;1.13;;;24.20;99.90;;;;;;5074492;28;20412;-68
2022/07/26 12:53:03;;;;;;;1.50;0.80;;;23.40;99.90;;;;;;5076682;28;20431;-76
2022/07/26 12:55:29;;;;;;;5.33;1.43;;;22.50;99.90;;;;;;5092497;28;20443;-75
2022/07/26 12:57:58;;;;;;;4.00;1.50;;;22.30;99.90;;;;;;5092370;28;20924;-74
2022/07/26 13:00:24;;;;;;;1.63;1.03;;;22.00;99.90;;;;;;5074231;28;20421;-67
2022/07/26 13:02:54;;;;;;;7.20;1.43;;;21.90;99.90;;;;;;5086507;28;20419;-68
2022/07/26 13:05:20;;;;;;;5.37;1.27;;;22.00;99.90;;;;;;5092688;28;20508;-67
2022/07/26 13:07:46;;;;;;;1.90;1.00;;;21.70;99.90;;;;;;5094337;28;20408;-66
2022/07/26 13:10:12;;;;;;;6.60;1.80;;;21.50;99.90;;;;;;5074440;28;20431;-67
2022/07/26 13:12:43;;;;;;;5.50;1.50;;;21.60;99.90;;;;;;5074771;28;20427;-74